createdAt,value
2022-10-29T00:01:10.780Z,13.10
2022-10-29T00:03:39.431Z,13.08
2022-10-29T00:06:12.074Z,13.06
2022-10-29T00:08:41.860Z,13.01
2022-10-29T00:11:12.459Z,13.01
2022-10-29T00:13:41.624Z,13.03
2022-10-29T00:16:12.047Z,12.98
2022-10-29T00:18:40.800Z,12.91
2022-10-29T00:21:13.838Z,12.85
2022-10-29T00:23:42.421Z,12.85
2022-10-29T00:26:11.310Z,12.83
2022-10-29T00:28:40.163Z,12.88
2022-10-29T00:31:12.675Z,12.97
2022-10-29T00:33:41.406Z,12.87
2022-10-29T00:36:13.543Z,12.86
2022-10-29T00:38:42.660Z,12.84
2022-10-29T00:41:13.858Z,12.94
2022-10-29T00:43:45.363Z,12.80
2022-10-29T00:46:16.696Z,12.72
2022-10-29T00:48:47.213Z,12.66
2022-10-29T00:51:18.044Z,12.63
2022-10-29T00:53:49.635Z,12.63
2022-10-29T00:56:18.475Z,12.66
2022-10-29T00:58:47.403Z,12.62
2022-10-29T01:01:16.544Z,12.62
2022-10-29T01:03:45.301Z,12.63
2022-10-29T01:06:14.399Z,12.58
2022-10-29T01:08:44.316Z,12.65
2022-10-29T01:11:26.454Z,12.60
2022-10-29T01:14:02.821Z,12.57
2022-10-29T01:16:38.508Z,12.57
2022-10-29T01:19:14.890Z,12.53
2022-10-29T01:21:45.663Z,12.55
2022-10-29T01:24:47.305Z,12.54
2022-10-29T01:27:52.606Z,12.53
2022-10-29T01:30:28.136Z,12.54
2022-10-29T01:33:05.750Z,12.60
2022-10-29T01:35:42.335Z,12.55
2022-10-29T01:38:18.836Z,12.53
2022-10-29T01:40:51.186Z,12.53
2022-10-29T01:43:23.580Z,12.62
2022-10-29T01:45:55.667Z,12.57
2022-10-29T01:48:30.533Z,12.57
2022-10-29T01:51:04.868Z,12.55
2022-10-29T01:53:36.068Z,12.55
2022-10-29T01:56:04.830Z,12.54
2022-10-29T01:58:33.712Z,12.55
2022-10-29T02:01:10.434Z,12.55
2022-10-29T02:03:49.933Z,12.54
2022-10-29T02:06:25.533Z,12.52
2022-10-29T02:08:57.797Z,12.41
2022-10-29T02:11:28.682Z,12.40
2022-10-29T02:14:00.174Z,12.38
2022-10-29T02:16:30.717Z,12.39
2022-10-29T02:19:01.152Z,12.38
2022-10-29T02:21:29.736Z,12.43
2022-10-29T02:23:58.330Z,12.45
2022-10-29T02:26:26.895Z,12.42
2022-10-29T02:28:55.493Z,12.37
2022-10-29T02:31:24.071Z,12.35
2022-10-29T02:33:53.009Z,12.38
2022-10-29T02:36:22.932Z,12.30
2022-10-29T02:38:51.524Z,12.28
2022-10-29T02:41:20.145Z,12.24
2022-10-29T02:43:48.746Z,12.22
2022-10-29T02:46:19.206Z,12.23
2022-10-29T02:48:47.978Z,12.19
2022-10-29T02:51:17.496Z,12.18
2022-10-29T02:53:47.459Z,12.12
2022-10-29T02:56:16.027Z,12.19
2022-10-29T02:58:44.589Z,12.20
2022-10-29T03:01:13.195Z,12.24
2022-10-29T03:03:42.478Z,12.20
2022-10-29T03:06:13.860Z,12.26
2022-10-29T03:08:42.453Z,12.11
2022-10-29T03:11:13.008Z,12.19
2022-10-29T03:13:41.578Z,12.18
2022-10-29T03:16:10.641Z,12.17
2022-10-29T03:18:39.343Z,12.24
2022-10-29T03:21:07.985Z,12.19
2022-10-29T03:23:36.601Z,12.21
2022-10-29T03:26:05.381Z,12.28
2022-10-29T03:28:35.512Z,12.32
2022-10-29T03:31:04.132Z,12.32
2022-10-29T03:33:32.693Z,12.28
2022-10-29T03:36:02.501Z,12.27
2022-10-29T03:38:31.289Z,12.26
2022-10-29T03:40:59.874Z,12.21
2022-10-29T03:43:28.615Z,12.30
2022-10-29T03:45:58.800Z,12.28
2022-10-29T03:48:27.375Z,12.24
2022-10-29T03:50:58.129Z,12.22
2022-10-29T03:53:27.291Z,12.20
2022-10-29T03:55:57.020Z,12.18
2022-10-29T03:58:26.143Z,12.19
2022-10-29T04:00:56.086Z,12.32
2022-10-29T04:03:26.176Z,12.26
2022-10-29T04:05:54.927Z,12.26
2022-10-29T04:08:23.641Z,12.27
2022-10-29T04:10:52.534Z,12.23
2022-10-29T04:13:21.253Z,12.22
2022-10-29T04:15:49.803Z,12.35
2022-10-29T04:18:18.426Z,12.24
2022-10-29T04:29:14.109Z,12.19
2022-10-29T04:31:42.695Z,12.17
2022-10-29T04:34:11.267Z,12.13
2022-10-29T04:36:41.203Z,12.16
2022-10-29T04:39:09.776Z,12.25
2022-10-29T04:41:38.359Z,12.18
2022-10-29T04:44:06.950Z,12.27
2022-10-29T04:46:35.519Z,12.17
2022-10-29T04:49:04.188Z,12.13
2022-10-29T04:51:32.843Z,12.13
2022-10-29T04:54:02.768Z,12.14
2022-10-29T04:56:31.397Z,12.11
2022-10-29T04:59:00.007Z,12.16
2022-10-29T05:01:28.703Z,12.20
2022-10-29T05:03:59.977Z,12.10
2022-10-29T05:06:29.059Z,12.05
2022-10-29T05:08:57.652Z,12.04
2022-10-29T05:11:27.585Z,12.06
2022-10-29T05:13:56.166Z,12.07
2022-10-29T05:16:24.751Z,12.01
2022-10-29T05:18:53.322Z,11.99
2022-10-29T05:21:21.885Z,11.97
2022-10-29T05:23:50.488Z,11.97
2022-10-29T05:26:19.064Z,11.94
2022-10-29T05:28:51.614Z,11.91
2022-10-29T05:31:20.308Z,11.87
2022-10-29T05:33:51.105Z,11.84
2022-10-29T05:36:22.454Z,11.82
2022-10-29T05:38:51.042Z,11.80
2022-10-29T05:41:19.646Z,11.79
2022-10-29T05:43:51.251Z,11.78
2022-10-29T05:46:20.866Z,11.77
2022-10-29T05:48:50.143Z,11.77
2022-10-29T05:51:18.685Z,11.77
2022-10-29T05:53:48.135Z,11.78
2022-10-29T05:56:16.856Z,11.82
2022-10-29T05:58:45.432Z,11.78
2022-10-29T06:01:15.471Z,11.79
2022-10-29T06:03:44.123Z,11.88
2022-10-29T06:06:13.021Z,11.86
2022-10-29T06:08:41.652Z,11.88
2022-10-29T06:11:10.235Z,11.78
2022-10-29T06:13:38.787Z,11.80
2022-10-29T06:16:08.556Z,11.72
2022-10-29T06:18:38.491Z,11.69
2022-10-29T06:21:07.150Z,11.64
2022-10-29T06:23:35.743Z,11.65
2022-10-29T06:26:04.381Z,11.64
2022-10-29T06:28:34.873Z,11.63
2022-10-29T06:31:03.900Z,11.69
2022-10-29T06:33:32.534Z,11.65
2022-10-29T06:36:02.755Z,11.65
2022-10-29T06:38:31.330Z,11.64
2022-10-29T06:40:59.954Z,11.68
2022-10-29T06:43:28.567Z,11.69
2022-10-29T06:45:57.189Z,11.67
2022-10-29T06:48:25.800Z,11.68
2022-10-29T06:50:54.401Z,11.67
2022-10-29T06:53:24.581Z,11.79
2022-10-29T06:55:53.174Z,11.70
2022-10-29T06:58:22.165Z,11.69
2022-10-29T07:00:50.805Z,11.70
2022-10-29T07:03:21.071Z,11.73
2022-10-29T07:05:56.351Z,11.68
2022-10-29T07:08:26.409Z,11.69
2022-10-29T07:10:55.701Z,11.70
2022-10-29T07:13:24.299Z,11.76
2022-10-29T07:15:52.936Z,11.73
2022-10-29T07:18:21.569Z,11.70
2022-10-29T07:20:50.128Z,11.74
2022-10-29T07:23:18.806Z,11.82
2022-10-29T07:25:48.808Z,11.86
2022-10-29T07:28:20.666Z,11.95
2022-10-29T07:30:49.524Z,12.04
2022-10-29T07:33:18.668Z,11.86
2022-10-29T07:35:47.459Z,11.95
2022-10-29T07:38:16.078Z,11.98
2022-10-29T07:40:49.702Z,12.01
2022-10-29T07:43:19.337Z,12.06
2022-10-29T07:45:49.785Z,12.07
2022-10-29T07:48:19.245Z,12.11
2022-10-29T07:50:48.288Z,12.14
2022-10-29T07:53:17.018Z,12.21
2022-10-29T07:55:45.616Z,12.29
2022-10-29T07:58:15.586Z,12.26
2022-10-29T08:00:44.212Z,12.30
2022-10-29T08:03:13.716Z,12.47
2022-10-29T08:05:43.148Z,12.48
2022-10-29T08:08:11.888Z,12.60
2022-10-29T08:10:40.484Z,12.70
2022-10-29T08:13:09.195Z,12.76
2022-10-29T08:15:39.172Z,12.85
2022-10-29T08:18:13.043Z,12.90
2022-10-29T08:20:41.695Z,13.02
2022-10-29T08:23:10.319Z,13.04
2022-10-29T08:25:41.463Z,13.18
2022-10-29T08:28:11.562Z,13.29
2022-10-29T08:30:41.965Z,13.38
2022-10-29T08:33:10.968Z,13.46
2022-10-29T08:35:39.673Z,13.55
2022-10-29T08:38:08.273Z,13.74
2022-10-29T08:40:42.928Z,13.79
2022-10-29T08:43:26.660Z,13.88
2022-10-29T08:45:57.107Z,13.92
2022-10-29T08:48:38.599Z,14.02
2022-10-29T08:51:12.447Z,14.17
2022-10-29T08:53:45.503Z,14.29
2022-10-29T08:56:20.965Z,14.43
2022-10-29T08:58:56.492Z,14.50
2022-10-29T09:01:26.551Z,14.58
2022-10-29T09:03:55.539Z,14.66
2022-10-29T09:06:29.615Z,14.80
2022-10-29T09:09:10.764Z,14.92
2022-10-29T09:11:55.898Z,15.01
2022-10-29T09:14:37.363Z,15.13
2022-10-29T09:17:17.703Z,15.27
2022-10-29T09:20:01.126Z,15.26
2022-10-29T09:22:34.488Z,15.36
2022-10-29T09:25:09.617Z,15.41
2022-10-29T09:27:46.104Z,15.48
2022-10-29T09:30:16.225Z,15.61
2022-10-29T09:35:37.549Z,15.77
2022-10-29T09:38:12.453Z,15.81
2022-10-29T09:40:42.558Z,15.88
2022-10-29T09:43:19.235Z,15.98
2022-10-29T09:45:52.101Z,15.97
2022-10-29T09:48:27.323Z,16.06
2022-10-29T09:51:07.030Z,16.10
2022-10-29T09:53:35.776Z,16.17
2022-10-29T09:56:08.146Z,16.23
2022-10-29T09:58:41.569Z,16.30
2022-10-29T10:01:10.167Z,16.36
2022-10-29T10:03:45.538Z,16.38
2022-10-29T10:06:17.382Z,16.46
2022-10-29T10:09:00.467Z,16.47
2022-10-29T10:11:34.825Z,16.55
2022-10-29T10:14:06.671Z,16.68
2022-10-29T10:16:35.400Z,16.73
2022-10-29T10:19:22.482Z,16.84
2022-10-29T10:21:59.446Z,16.85
2022-10-29T10:24:31.046Z,16.95
2022-10-29T10:26:59.798Z,17.02
2022-10-29T10:29:28.839Z,17.10
2022-10-29T10:32:16.323Z,17.21
2022-10-29T10:34:46.240Z,17.29
2022-10-29T10:37:19.012Z,17.48
2022-10-29T10:39:52.604Z,17.62
2022-10-29T10:42:23.880Z,17.74
2022-10-29T10:44:54.447Z,17.85
2022-10-29T10:47:25.008Z,18.05
2022-10-29T10:49:55.039Z,18.18
2022-10-29T10:52:27.078Z,18.23
2022-10-29T10:54:58.936Z,18.35
2022-10-29T10:57:31.782Z,18.44
2022-10-29T11:00:06.271Z,18.57
2022-10-29T11:02:40.732Z,18.70
2022-10-29T11:05:17.489Z,18.83
2022-10-29T11:07:50.436Z,18.91
2022-10-29T11:10:20.535Z,19.03
2022-10-29T11:12:52.417Z,19.09
2022-10-29T11:15:27.136Z,19.18
2022-10-29T11:17:58.120Z,19.20
2022-10-29T11:20:36.967Z,19.26
2022-10-29T11:23:21.775Z,19.33
2022-10-29T11:25:54.198Z,19.38
2022-10-29T11:28:26.877Z,19.44
2022-10-29T11:30:59.371Z,19.53
2022-10-29T11:33:35.001Z,19.62
2022-10-29T11:36:13.432Z,19.68
2022-10-29T11:38:46.429Z,19.73
2022-10-29T11:41:24.401Z,19.80
2022-10-29T11:43:53.049Z,19.90
2022-10-29T11:46:26.688Z,19.96
2022-10-29T11:49:00.384Z,20.03
2022-10-29T11:51:35.239Z,20.09
2022-10-29T11:54:05.888Z,20.08
2022-10-29T11:56:45.001Z,20.15
2022-10-29T11:59:23.294Z,20.26
2022-10-29T12:01:58.011Z,20.33
2022-10-29T12:04:31.870Z,20.42
2022-10-29T12:07:15.617Z,20.48
2022-10-29T12:10:25.981Z,20.59
2022-10-29T12:13:00.432Z,20.63
2022-10-29T12:15:35.568Z,20.72
2022-10-29T12:18:11.434Z,20.82
2022-10-29T12:20:46.234Z,20.91
2022-10-29T12:23:27.524Z,20.95
2022-10-29T12:26:02.614Z,20.99
2022-10-29T12:28:39.532Z,20.98
2022-10-29T12:31:16.355Z,20.97
2022-10-29T12:33:49.795Z,20.97
2022-10-29T12:36:23.806Z,20.96
2022-10-29T12:38:56.317Z,20.96
2022-10-29T12:41:26.206Z,20.91
2022-10-29T12:44:01.987Z,20.88
2022-10-29T12:46:34.442Z,20.79
2022-10-29T12:49:08.369Z,20.72
2022-10-29T12:51:43.752Z,20.66
2022-10-29T12:54:31.309Z,20.61
2022-10-29T12:57:05.416Z,20.60
2022-10-29T12:59:36.588Z,20.61
2022-10-29T13:02:46.994Z,20.64
2022-10-29T13:05:20.934Z,20.63
2022-10-29T13:08:32.323Z,20.62
2022-10-29T13:11:02.279Z,20.58
2022-10-29T13:13:53.749Z,20.55
2022-10-29T13:16:29.508Z,20.55
2022-10-29T13:19:15.658Z,20.59
2022-10-29T13:21:58.209Z,20.60
2022-10-29T13:24:27.684Z,20.61
2022-10-29T13:27:02.588Z,20.65
2022-10-29T13:29:41.772Z,20.66
2022-10-29T13:32:29.969Z,20.69
2022-10-29T13:35:00.024Z,20.69
2022-10-29T13:37:50.677Z,20.73
2022-10-29T13:40:56.335Z,20.75
2022-10-29T13:43:28.283Z,20.77
2022-10-29T13:46:45.809Z,20.76
2022-10-29T13:49:18.798Z,20.72
2022-10-29T13:51:54.397Z,20.66
2022-10-29T13:54:41.371Z,20.56
2022-10-29T13:57:19.369Z,20.53
2022-10-29T13:59:52.046Z,20.52
2022-10-29T14:02:26.945Z,20.51
2022-10-29T14:04:57.459Z,20.53
2022-10-29T14:07:30.209Z,20.54
2022-10-29T14:10:03.906Z,20.59
2022-10-29T14:12:33.884Z,20.62
2022-10-29T14:15:07.200Z,20.63
2022-10-29T14:17:37.899Z,20.60
2022-10-29T14:20:19.375Z,20.55
2022-10-29T14:22:47.960Z,20.49
2022-10-29T14:25:35.611Z,20.52
2022-10-29T14:28:25.771Z,20.50
2022-10-29T14:31:04.659Z,20.48
2022-10-29T14:33:34.959Z,20.43
2022-10-29T14:36:14.199Z,20.36
2022-10-29T14:38:44.467Z,20.34
2022-10-29T14:41:13.405Z,20.33
2022-10-29T14:43:42.132Z,20.30
2022-10-29T14:46:21.974Z,20.20
2022-10-29T14:48:57.609Z,20.14
2022-10-29T14:51:27.230Z,20.12
2022-10-29T14:53:58.760Z,20.10
2022-10-29T14:56:33.028Z,20.06
2022-10-29T14:59:04.013Z,19.96
2022-10-29T15:01:34.031Z,19.84
2022-10-29T15:04:02.703Z,19.78
2022-10-29T15:06:31.723Z,19.76
2022-10-29T15:09:03.521Z,19.76
2022-10-29T15:11:34.586Z,19.73
2022-10-29T15:14:03.794Z,19.77
2022-10-29T15:16:38.219Z,19.72
2022-10-29T15:19:13.341Z,19.62
2022-10-29T15:21:42.002Z,19.53
2022-10-29T15:24:19.471Z,19.42
2022-10-29T15:26:53.371Z,19.37
2022-10-29T15:29:29.172Z,19.27
2022-10-29T15:32:02.466Z,19.21
2022-10-29T15:34:33.274Z,19.14
2022-10-29T15:37:16.292Z,19.07
2022-10-29T15:40:01.768Z,19.02
2022-10-29T15:42:32.964Z,18.97
2022-10-29T15:45:14.820Z,18.96
2022-10-29T15:47:46.637Z,18.84
2022-10-29T15:50:16.788Z,18.80
2022-10-29T15:52:47.848Z,18.70
2022-10-29T15:55:26.349Z,18.63
2022-10-29T15:57:59.131Z,18.60
2022-10-29T16:00:28.410Z,18.56
2022-10-29T16:03:03.316Z,18.50
2022-10-29T16:05:32.633Z,18.43
2022-10-29T16:08:03.558Z,18.35
2022-10-29T16:10:32.778Z,18.29
2022-10-29T16:13:01.501Z,18.27
2022-10-29T16:15:30.142Z,18.22
2022-10-29T16:18:00.382Z,18.18
2022-10-29T16:20:29.206Z,18.11
2022-10-29T16:22:57.860Z,18.05
2022-10-29T16:25:28.119Z,18.03
2022-10-29T16:27:57.124Z,18.01
2022-10-29T16:30:26.080Z,17.97
2022-10-29T16:32:55.587Z,17.93
2022-10-29T16:35:26.870Z,17.85
2022-10-29T16:37:56.146Z,17.77
2022-10-29T16:40:26.532Z,17.75
2022-10-29T16:42:56.002Z,17.69
2022-10-29T16:45:26.517Z,17.72
2022-10-29T16:47:55.663Z,17.72
2022-10-29T16:50:27.795Z,17.67
2022-10-29T16:53:00.531Z,17.66
2022-10-29T16:55:29.947Z,17.64
2022-10-29T16:57:58.993Z,17.64
2022-10-29T17:00:31.506Z,17.60
2022-10-29T17:03:03.590Z,17.57
2022-10-29T17:05:43.439Z,17.56
2022-10-29T17:08:13.068Z,17.49
2022-10-29T17:10:41.638Z,17.40
2022-10-29T17:13:11.687Z,17.38
2022-10-29T17:15:41.253Z,17.37
2022-10-29T17:18:10.041Z,17.36
2022-10-29T17:20:39.948Z,17.36
2022-10-29T17:23:08.542Z,17.34
2022-10-29T17:25:37.177Z,17.38
2022-10-29T17:28:05.793Z,17.39
2022-10-29T17:30:34.371Z,17.36
2022-10-29T17:33:02.959Z,17.31
2022-10-29T17:35:31.532Z,17.36
2022-10-29T17:38:01.448Z,17.27
2022-10-29T17:40:30.034Z,17.21
2022-10-29T17:42:59.060Z,17.19
2022-10-29T17:45:27.983Z,17.21
2022-10-29T17:47:57.221Z,17.12
2022-10-29T17:50:26.426Z,17.03
2022-10-29T17:52:57.727Z,16.89
2022-10-29T17:55:27.738Z,16.86
2022-10-29T17:57:56.573Z,16.88
2022-10-29T18:00:25.815Z,16.81
2022-10-29T18:02:54.413Z,16.76
2022-10-29T18:05:23.066Z,16.70
2022-10-29T18:07:51.677Z,16.68
2022-10-29T18:10:20.286Z,16.73
2022-10-29T18:12:50.265Z,16.67
2022-10-29T18:15:19.105Z,16.67
2022-10-29T18:17:47.681Z,16.66
2022-10-29T18:20:17.035Z,16.61
2022-10-29T18:22:45.834Z,16.62
2022-10-29T18:25:14.413Z,16.66
2022-10-29T18:27:43.023Z,16.65
2022-10-29T18:30:13.583Z,16.54
2022-10-29T18:32:42.261Z,16.48
2022-10-29T18:35:11.271Z,16.39
2022-10-29T18:37:39.815Z,16.34
2022-10-29T18:40:09.427Z,16.24
2022-10-29T18:42:37.995Z,16.20
2022-10-29T18:45:07.632Z,16.21
2022-10-29T18:47:37.569Z,16.20
2022-10-29T18:50:06.810Z,16.16
2022-10-29T18:52:35.372Z,16.11
2022-10-29T18:55:04.066Z,16.11
2022-10-29T18:57:33.041Z,16.11
2022-10-29T19:00:01.623Z,16.03
2022-10-29T19:02:30.305Z,15.98
2022-10-29T19:05:00.278Z,15.99
2022-10-29T19:07:28.899Z,15.93
2022-10-29T19:09:57.794Z,15.88
2022-10-29T19:12:26.420Z,15.86
2022-10-29T19:14:54.983Z,15.84
2022-10-29T19:17:23.535Z,15.84
2022-10-29T19:19:52.116Z,15.84
2022-10-29T19:22:22.068Z,15.87
2022-10-29T19:24:50.650Z,15.89
2022-10-29T19:27:20.675Z,15.89
2022-10-29T19:29:49.340Z,15.81
2022-10-29T19:32:17.913Z,15.79
2022-10-29T19:34:46.504Z,15.81
2022-10-29T19:37:15.135Z,15.71
2022-10-29T19:39:45.116Z,15.63
2022-10-29T19:42:13.689Z,15.63
2022-10-29T19:44:42.268Z,15.74
2022-10-29T19:47:10.868Z,15.66
2022-10-29T19:49:39.443Z,15.59
2022-10-29T19:52:08.047Z,15.51
2022-10-29T19:54:36.664Z,15.49
2022-10-29T19:57:06.625Z,15.48
2022-10-29T19:59:35.184Z,15.43
2022-10-29T20:02:03.953Z,15.40
2022-10-29T20:04:32.605Z,15.34
2022-10-29T20:07:01.194Z,15.36
2022-10-29T20:09:30.389Z,15.33
2022-10-29T20:11:59.044Z,15.29
2022-10-29T20:14:29.336Z,15.26
2022-10-29T20:16:57.970Z,15.24
2022-10-29T20:19:26.524Z,15.19
2022-10-29T20:21:55.124Z,15.20
2022-10-29T20:24:23.763Z,15.12
2022-10-29T20:26:52.365Z,15.05
2022-10-29T20:29:21.001Z,15.00
2022-10-29T20:31:50.974Z,14.96
2022-10-29T20:34:19.587Z,14.96
2022-10-29T20:36:48.266Z,14.93
2022-10-29T20:39:16.988Z,14.88
2022-10-29T20:41:45.608Z,14.87
2022-10-29T20:44:14.380Z,14.80
2022-10-29T20:46:43.910Z,14.78
2022-10-29T20:49:13.950Z,14.80
2022-10-29T20:51:42.569Z,14.76
2022-10-29T20:54:11.190Z,14.71
2022-10-29T20:56:39.769Z,14.66
2022-10-29T20:59:08.413Z,14.63
2022-10-29T21:01:37.094Z,14.65
2022-10-29T21:04:05.886Z,14.65
2022-10-29T21:06:35.821Z,14.69
2022-10-29T21:09:04.571Z,14.69
2022-10-29T21:11:33.186Z,14.64
2022-10-29T21:14:01.897Z,14.66
2022-10-29T21:16:30.684Z,14.69
2022-10-29T21:19:00.372Z,14.64
2022-10-29T21:21:30.447Z,14.61
2022-10-29T21:24:00.502Z,14.57
2022-10-29T21:26:29.747Z,14.51
2022-10-29T21:28:58.352Z,14.46
2022-10-29T21:31:27.096Z,14.45
2022-10-29T21:33:56.534Z,14.42
2022-10-29T21:36:25.171Z,14.40
2022-10-29T21:38:53.779Z,14.36
2022-10-29T21:41:23.757Z,14.29
2022-10-29T21:43:52.404Z,14.28
2022-10-29T21:46:21.006Z,14.26
2022-10-29T21:48:49.567Z,14.37
2022-10-29T21:51:18.477Z,14.41
2022-10-29T21:53:47.056Z,14.32
2022-10-29T21:56:16.225Z,14.38
2022-10-29T21:58:46.180Z,14.29
2022-10-29T22:01:15.921Z,14.29
2022-10-29T22:03:46.070Z,14.26
2022-10-29T22:06:16.379Z,14.30
2022-10-29T22:08:45.508Z,14.30
2022-10-29T22:11:15.310Z,14.28
2022-10-29T22:13:43.889Z,14.27
2022-10-29T22:16:13.904Z,14.24
2022-10-29T22:18:42.537Z,14.18
2022-10-29T22:21:13.446Z,14.20
2022-10-29T22:23:46.044Z,14.21
2022-10-29T22:26:15.927Z,14.17
2022-10-29T22:28:45.189Z,14.11
2022-10-29T22:31:16.060Z,14.15
2022-10-29T22:33:45.517Z,14.14
2022-10-29T22:36:15.877Z,14.16
2022-10-29T22:38:44.879Z,14.10
2022-10-29T22:41:15.229Z,14.12
2022-10-29T22:43:44.089Z,14.13
2022-10-29T22:46:15.861Z,14.13
2022-10-29T22:48:44.518Z,14.12
2022-10-29T22:51:14.637Z,14.11
2022-10-29T22:53:43.698Z,14.13
2022-10-29T22:56:14.142Z,14.06
2022-10-29T22:58:42.931Z,14.09
2022-10-29T23:01:13.155Z,14.12
2022-10-29T23:03:43.632Z,14.08
2022-10-29T23:06:13.812Z,14.10
2022-10-29T23:08:44.265Z,14.01
2022-10-29T23:11:16.555Z,14.03
2022-10-29T23:13:45.130Z,13.95
2022-10-29T23:16:14.238Z,13.94
2022-10-29T23:18:44.622Z,13.93
2022-10-29T23:21:13.207Z,13.85
2022-10-29T23:23:41.799Z,13.74
2022-10-29T23:26:11.497Z,13.75
2022-10-29T23:28:40.812Z,13.69
2022-10-29T23:31:12.498Z,13.61
2022-10-29T23:33:45.970Z,13.65
2022-10-29T23:36:15.578Z,13.56
2022-10-29T23:38:44.565Z,13.57
2022-10-29T23:41:13.459Z,13.59
2022-10-29T23:43:42.211Z,13.53
2022-10-29T23:46:10.776Z,13.50
2022-10-29T23:48:39.354Z,13.47
2022-10-29T23:51:09.301Z,13.51
2022-10-29T23:53:37.997Z,13.50
2022-10-29T23:56:07.075Z,13.46
2022-10-29T23:58:35.649Z,13.46
